Time;durP1;ratioP1;P1;durP2;ratioP2;P2;SDS_P1;SDS_P2;PMS_P1;PMS_P2;Temp;Humidity;BMP_temperature;BMP_pressure;BME280_temperature;BME280_humidity;BME280_pressure;Samples;Min_cycle;Max_cycle;Signal;HPM_P1;HPM_P2
2023/05/03 00:00:07;;;;;;;2.73;2.63;;;11.90;99.90;;;;;;5037426;28;20226;-78
2023/05/03 00:02:34;;;;;;;2.53;2.43;;;11.80;99.90;;;;;;5039804;28;20215;-78
2023/05/03 00:05:00;;;;;;;2.80;2.60;;;11.80;99.90;;;;;;5041935;28;20229;-78
2023/05/03 00:07:26;;;;;;;2.73;2.63;;;11.80;99.90;;;;;;5039263;28;20727;-80
2023/05/03 00:09:51;;;;;;;3.00;2.80;;;11.80;99.90;;;;;;5041229;28;20192;-77
2023/05/03 00:12:17;;;;;;;3.10;2.90;;;11.70;99.90;;;;;;5039599;28;20652;-79
2023/05/03 00:14:44;;;;;;;2.90;2.70;;;11.70;99.90;;;;;;5035978;28;20169;-78
2023/05/03 00:17:10;;;;;;;2.90;2.80;;;11.80;99.90;;;;;;5036927;28;20190;-79
2023/05/03 00:19:36;;;;;;;2.93;2.80;;;11.80;99.90;;;;;;5039786;28;20181;-78
2023/05/03 00:22:02;;;;;;;3.30;3.10;;;11.70;99.90;;;;;;5041986;28;20175;-77
2023/05/03 00:24:28;;;;;;;3.63;3.20;;;11.70;99.90;;;;;;5035842;28;20165;-78
2023/05/03 00:26:54;;;;;;;2.93;2.73;;;11.70;99.90;;;;;;5035782;28;20212;-77
2023/05/03 00:29:21;;;;;;;3.07;2.87;;;11.70;99.90;;;;;;5034980;28;20278;-77
2023/05/03 00:31:47;;;;;;;2.90;2.70;;;11.70;99.90;;;;;;5035125;28;20188;-77
2023/05/03 00:34:13;;;;;;;3.30;3.00;;;11.70;99.90;;;;;;5035108;28;20622;-78
2023/05/03 00:36:39;;;;;;;3.10;2.90;;;11.70;99.90;;;;;;5035164;28;20174;-78
2023/05/03 00:39:05;;;;;;;5.37;4.03;;;11.70;99.90;;;;;;5034671;28;20206;-77
2023/05/03 00:41:30;;;;;;;4.53;3.33;;;11.70;99.90;;;;;;5035261;28;20183;-79
2023/05/03 00:43:56;;;;;;;3.63;3.33;;;11.80;99.90;;;;;;5035032;28;20541;-79
2023/05/03 00:46:22;;;;;;;3.80;3.50;;;11.70;99.90;;;;;;5033666;28;20219;-79
2023/05/03 00:48:48;;;;;;;4.37;3.40;;;11.70;99.90;;;;;;5035060;28;20178;-80
2023/05/03 00:51:15;;;;;;;3.73;3.43;;;11.70;99.90;;;;;;5035036;28;20168;-79
2023/05/03 00:53:42;;;;;;;3.43;3.13;;;11.70;99.90;;;;;;5034911;28;20175;-80
2023/05/03 00:56:08;;;;;;;3.13;2.93;;;11.70;99.90;;;;;;5034858;28;20263;-77
2023/05/03 00:58:38;;;;;;;3.00;2.80;;;11.70;99.90;;;;;;5033248;28;20464;-78
2023/05/03 01:01:07;;;;;;;3.37;3.07;;;11.70;99.90;;;;;;5034923;28;20163;-78
2023/05/03 01:03:36;;;;;;;3.77;3.30;;;11.70;99.90;;;;;;5034304;28;20588;-77
2023/05/03 01:06:12;;;;;;;3.20;3.00;;;11.70;99.90;;;;;;5034625;28;20666;-77
2023/05/03 01:09:00;;;;;;;3.50;3.20;;;11.70;99.90;;;;;;5034729;28;20177;-78
2023/05/03 01:11:37;;;;;;;3.20;3.00;;;11.70;99.90;;;;;;5034636;28;20167;-78
2023/05/03 01:14:35;;;;;;;3.57;3.27;;;11.70;99.90;;;;;;5034456;28;20159;-78
2023/05/03 01:17:11;;;;;;;3.23;2.93;;;11.80;99.90;;;;;;5034635;28;20283;-78
2023/05/03 01:19:44;;;;;;;3.33;3.13;;;11.70;99.90;;;;;;5034487;28;20174;-78
2023/05/03 01:22:36;;;;;;;3.23;3.03;;;11.70;99.90;;;;;;5034261;28;20165;-79
2023/05/03 01:25:10;;;;;;;2.97;2.67;;;12.40;99.90;;;;;;5033226;28;20169;-77
2023/05/03 01:27:37;;;;;;;3.23;3.03;;;11.60;99.90;;;;;;5034158;28;20292;-78
2023/05/03 01:30:10;;;;;;;3.33;3.13;;;11.60;99.90;;;;;;5035646;28;20274;-78
2023/05/03 01:32:57;;;;;;;3.50;3.27;;;11.60;99.90;;;;;;5036929;28;20585;-78
2023/05/03 01:35:46;;;;;;;4.03;3.23;;;11.60;99.90;;;;;;5038277;28;20161;-79
2023/05/03 01:38:12;;;;;;;3.60;3.30;;;11.60;99.90;;;;;;5032002;28;20192;-77
2023/05/03 01:40:46;;;;;;;3.50;3.20;;;11.60;99.90;;;;;;5036259;28;20184;-77
2023/05/03 01:43:14;;;;;;;2.53;2.43;;;11.60;99.90;;;;;;5036794;28;20690;-77
2023/05/03 01:45:40;;;;;;;3.10;2.90;;;11.70;99.90;;;;;;5033715;28;20174;-79
2023/05/03 01:48:13;;;;;;;2.90;2.70;;;11.60;99.90;;;;;;5033551;28;20176;-78
2023/05/03 01:50:39;;;;;;;2.80;2.70;;;11.60;99.90;;;;;;5034139;28;20195;-79
2023/05/03 01:53:05;;;;;;;2.70;2.60;;;11.60;99.90;;;;;;5033880;28;20207;-79
2023/05/03 01:55:31;;;;;;;3.03;2.73;;;11.70;99.90;;;;;;5034407;28;20199;-79
2023/05/03 01:57:57;;;;;;;3.10;2.90;;;11.70;99.90;;;;;;5034183;28;20640;-78
2023/05/03 02:00:23;;;;;;;2.80;2.70;;;11.70;99.90;;;;;;5034071;28;20181;-77
2023/05/03 02:02:48;;;;;;;2.80;2.70;;;11.70;99.90;;;;;;5033773;28;20262;-77
2023/05/03 02:05:14;;;;;;;3.47;3.27;;;11.70;99.90;;;;;;5033465;28;20228;-77
2023/05/03 02:07:40;;;;;;;3.03;2.83;;;11.60;99.90;;;;;;5031627;28;20218;-78
2023/05/03 02:10:06;;;;;;;3.17;2.97;;;11.50;99.90;;;;;;5033123;28;20177;-79
2023/05/03 02:12:32;;;;;;;3.07;2.73;;;11.50;99.90;;;;;;5033741;28;20170;-78
2023/05/03 02:14:58;;;;;;;3.37;3.07;;;11.50;99.90;;;;;;5033390;28;20676;-77
2023/05/03 02:17:26;;;;;;;2.60;2.50;;;11.50;99.90;;;;;;5033322;28;20184;-78
2023/05/03 02:19:52;;;;;;;2.77;2.47;;;11.50;99.90;;;;;;5033508;28;20188;-78
2023/05/03 02:22:18;;;;;;;2.90;2.70;;;11.50;99.90;;;;;;5036923;28;20179;-78
2023/05/03 02:24:44;;;;;;;2.27;2.17;;;11.50;99.90;;;;;;5033500;28;20636;-77
2023/05/03 02:27:10;;;;;;;2.33;2.23;;;11.40;99.90;;;;;;5033472;28;20215;-78
2023/05/03 02:29:36;;;;;;;2.20;2.10;;;11.50;99.90;;;;;;5033430;28;20198;-78
2023/05/03 02:32:04;;;;;;;2.40;2.30;;;11.50;99.90;;;;;;5031949;28;20185;-79
2023/05/03 02:34:30;;;;;;;2.37;2.27;;;11.50;99.90;;;;;;5032999;28;20203;-77
2023/05/03 02:36:56;;;;;;;2.40;2.30;;;11.50;99.90;;;;;;5033487;28;20238;-78
2023/05/03 02:39:22;;;;;;;2.20;2.10;;;11.50;99.90;;;;;;5033206;28;20510;-77
2023/05/03 02:41:47;;;;;;;2.07;1.97;;;11.50;99.90;;;;;;5033274;28;20643;-78
2023/05/03 02:44:14;;;;;;;1.73;1.70;;;11.50;99.90;;;;;;5032993;28;20278;-78
2023/05/03 02:46:40;;;;;;;1.87;1.80;;;11.50;99.90;;;;;;5033363;28;20242;-78
2023/05/03 02:49:07;;;;;;;1.97;1.87;;;11.40;99.90;;;;;;5033483;28;20308;-79
2023/05/03 02:51:33;;;;;;;1.83;1.60;;;11.50;99.90;;;;;;5034606;28;20169;-78
2023/05/03 02:53:58;;;;;;;1.80;1.70;;;11.40;99.90;;;;;;5033398;28;20194;-77
2023/05/03 02:56:27;;;;;;;2.03;1.70;;;11.40;99.90;;;;;;5034956;28;20181;-77
2023/05/03 02:58:53;;;;;;;1.60;1.60;;;11.40;99.90;;;;;;5034816;28;20177;-77
2023/05/03 03:01:20;;;;;;;1.50;1.50;;;11.40;99.90;;;;;;5033619;28;20183;-79
2023/05/03 03:03:46;;;;;;;1.67;1.67;;;11.50;99.90;;;;;;5033222;28;20213;-77
2023/05/03 03:06:12;;;;;;;1.60;1.60;;;11.40;99.90;;;;;;5034215;28;20350;-78
2023/05/03 03:08:37;;;;;;;1.60;1.60;;;11.50;99.90;;;;;;5032612;28;20652;-79
2023/05/03 03:11:04;;;;;;;1.40;1.40;;;11.50;99.90;;;;;;5032466;28;20250;-78
2023/05/03 03:13:30;;;;;;;1.73;1.63;;;11.50;99.90;;;;;;5034295;28;20601;-78
2023/05/03 03:15:56;;;;;;;1.90;1.80;;;11.50;99.90;;;;;;5032069;28;20166;-78
2023/05/03 03:18:21;;;;;;;1.87;1.77;;;11.50;99.90;;;;;;5032603;28;20259;-76
2023/05/03 03:20:47;;;;;;;1.70;1.60;;;11.50;99.90;;;;;;5031754;28;20180;-78
2023/05/03 03:23:13;;;;;;;1.43;1.43;;;11.50;99.90;;;;;;5032513;28;20183;-80
2023/05/03 03:25:40;;;;;;;1.40;1.40;;;11.50;99.90;;;;;;5032115;28;20252;-79
2023/05/03 03:28:06;;;;;;;1.53;1.53;;;11.50;99.90;;;;;;5031954;28;20173;-78
2023/05/03 03:30:32;;;;;;;1.70;1.60;;;11.50;99.90;;;;;;5032366;28;20178;-77
2023/05/03 03:32:57;;;;;;;1.40;1.37;;;11.50;99.90;;;;;;5032551;28;20214;-78
2023/05/03 03:35:24;;;;;;;2.00;1.60;;;11.50;99.90;;;;;;5031874;28;20534;-79
2023/05/03 03:37:50;;;;;;;1.80;1.80;;;11.50;99.90;;;;;;5030921;28;20176;-78
2023/05/03 03:40:15;;;;;;;1.50;1.40;;;11.50;99.90;;;;;;5032358;28;20171;-77
2023/05/03 03:42:41;;;;;;;1.80;1.70;;;11.40;99.90;;;;;;5032469;28;20675;-79
2023/05/03 03:45:07;;;;;;;1.40;1.40;;;11.40;99.90;;;;;;5030757;28;20179;-77
2023/05/03 03:47:33;;;;;;;1.63;1.63;;;11.40;99.90;;;;;;5034174;28;20220;-78
2023/05/03 03:50:00;;;;;;;1.70;1.60;;;11.40;99.90;;;;;;5044290;28;20275;-77
2023/05/03 03:52:27;;;;;;;1.70;1.70;;;11.40;99.90;;;;;;5040511;28;20185;-79
2023/05/03 03:54:52;;;;;;;1.63;1.60;;;11.50;99.90;;;;;;5032976;28;20662;-78
2023/05/03 03:57:18;;;;;;;1.60;1.50;;;11.50;99.90;;;;;;5031055;28;20180;-77
2023/05/03 03:59:44;;;;;;;1.53;1.43;;;11.50;99.90;;;;;;5030950;28;20176;-78
2023/05/03 04:02:10;;;;;;;2.40;1.70;;;11.60;99.90;;;;;;5032285;28;20512;-79
2023/05/03 04:04:35;;;;;;;1.37;1.30;;;11.60;99.90;;;;;;5031828;28;20277;-78
2023/05/03 04:07:03;;;;;;;1.50;1.50;;;11.60;99.90;;;;;;5031955;28;20212;-78
2023/05/03 04:09:29;;;;;;;1.90;1.80;;;11.60;99.90;;;;;;5032700;28;20580;-78
2023/05/03 04:11:55;;;;;;;1.90;1.80;;;11.60;99.90;;;;;;5032757;28;20174;-79
2023/05/03 04:14:20;;;;;;;1.67;1.67;;;11.60;99.90;;;;;;5030721;28;20279;-78
2023/05/03 04:16:46;;;;;;;1.80;1.70;;;11.60;99.90;;;;;;5031017;28;20271;-77
2023/05/03 04:19:12;;;;;;;2.40;1.90;;;11.60;99.90;;;;;;5033475;28;20198;-78
2023/05/03 04:21:38;;;;;;;1.57;1.47;;;11.70;99.90;;;;;;5037498;28;20181;-77
2023/05/03 04:24:05;;;;;;;1.60;1.60;;;11.70;99.90;;;;;;5036287;28;20179;-78
2023/05/03 04:26:32;;;;;;;1.70;1.70;;;11.70;99.90;;;;;;5032704;28;20219;-79
2023/05/03 04:28:59;;;;;;;1.70;1.70;;;11.70;99.90;;;;;;5031721;28;20254;-77
2023/05/03 04:31:25;;;;;;;1.80;1.70;;;11.70;99.90;;;;;;5031555;28;20825;-76
2023/05/03 04:33:51;;;;;;;1.30;1.30;;;11.70;99.90;;;;;;5035507;28;20576;-78
2023/05/03 04:36:17;;;;;;;1.80;1.70;;;11.70;99.90;;;;;;5034570;28;20267;-77
2023/05/03 04:38:43;;;;;;;1.80;1.70;;;11.80;99.90;;;;;;5035615;28;20263;-78
2023/05/03 04:41:11;;;;;;;1.73;1.63;;;11.80;99.90;;;;;;5035352;28;20179;-78
2023/05/03 04:43:38;;;;;;;1.50;1.50;;;11.80;99.90;;;;;;5035306;28;20213;-78
2023/05/03 04:46:03;;;;;;;1.67;1.57;;;11.90;99.90;;;;;;5035028;28;20210;-79
2023/05/03 04:48:29;;;;;;;1.80;1.70;;;11.80;99.90;;;;;;5034955;28;20171;-79
2023/05/03 04:50:55;;;;;;;1.60;1.60;;;11.80;99.90;;;;;;5033430;28;20229;-78
2023/05/03 04:53:21;;;;;;;1.97;1.87;;;11.90;99.90;;;;;;5034730;28;20644;-78
2023/05/03 04:55:46;;;;;;;1.90;1.67;;;11.90;99.90;;;;;;5035476;28;20213;-77
2023/05/03 04:58:12;;;;;;;2.03;1.87;;;11.90;99.90;;;;;;5035593;28;20174;-77
2023/05/03 05:00:40;;;;;;;1.80;1.80;;;11.90;99.90;;;;;;5035735;28;20229;-78
2023/05/03 05:03:06;;;;;;;2.10;2.00;;;12.00;99.90;;;;;;5036879;28;20173;-78
2023/05/03 05:05:32;;;;;;;2.20;2.10;;;12.00;99.90;;;;;;5034922;28;20226;-78
2023/05/03 05:07:58;;;;;;;2.30;2.20;;;12.00;99.90;;;;;;5034522;28;20414;-79
2023/05/03 05:10:24;;;;;;;1.70;1.60;;;12.10;99.90;;;;;;5034646;28;20194;-78
2023/05/03 05:12:50;;;;;;;3.77;3.47;;;12.00;99.90;;;;;;5034707;28;20568;-78
2023/05/03 05:15:16;;;;;;;2.00;1.90;;;12.10;99.90;;;;;;5034709;28;20707;-78
2023/05/03 05:17:42;;;;;;;2.33;2.20;;;12.10;99.90;;;;;;5034544;28;20184;-77
2023/05/03 05:20:12;;;;;;;2.00;1.90;;;12.10;99.90;;;;;;5035591;28;20183;-77
2023/05/03 05:22:41;;;;;;;3.00;2.27;;;12.20;99.90;;;;;;5034856;28;20191;-77
2023/05/03 05:25:07;;;;;;;2.13;2.03;;;12.30;99.90;;;;;;5033766;28;20183;-77
2023/05/03 05:27:34;;;;;;;2.50;2.30;;;12.30;99.90;;;;;;5034831;28;20215;-79
2023/05/03 05:30:01;;;;;;;2.37;2.27;;;12.30;99.90;;;;;;5033130;28;20184;-79
2023/05/03 05:32:27;;;;;;;2.40;2.20;;;12.40;99.90;;;;;;5034617;28;20228;-77
2023/05/03 05:34:54;;;;;;;2.50;2.40;;;12.40;99.90;;;;;;5034385;28;20181;-77
2023/05/03 05:37:23;;;;;;;2.30;2.10;;;12.50;99.90;;;;;;5034443;28;20643;-77
2023/05/03 05:39:49;;;;;;;2.37;2.10;;;12.50;99.90;;;;;;5033378;28;20181;-77
2023/05/03 05:42:15;;;;;;;2.10;2.00;;;12.60;99.90;;;;;;5035343;28;20280;-78
2023/05/03 05:44:42;;;;;;;2.33;2.20;;;12.70;99.90;;;;;;5038792;28;20170;-76
2023/05/03 05:47:08;;;;;;;2.30;2.10;;;12.60;99.90;;;;;;5037737;28;20231;-78
2023/05/03 05:49:34;;;;;;;2.47;2.27;;;12.60;99.90;;;;;;5035669;28;20185;-78
2023/05/03 05:52:00;;;;;;;2.27;2.17;;;12.70;99.90;;;;;;5035937;28;20224;-78
2023/05/03 05:54:26;;;;;;;2.40;2.20;;;12.80;99.90;;;;;;5034430;28;20263;-78
2023/05/03 05:56:52;;;;;;;2.30;2.20;;;12.90;99.90;;;;;;5034233;28;20640;-79
2023/05/03 05:59:18;;;;;;;2.70;2.50;;;12.90;99.90;;;;;;5034171;28;20175;-79
2023/05/03 06:01:45;;;;;;;2.43;2.23;;;13.00;99.90;;;;;;5032787;28;20184;-78
2023/05/03 06:04:15;;;;;;;2.23;2.13;;;13.00;99.90;;;;;;5033412;28;20217;-78
2023/05/03 06:06:41;;;;;;;2.20;2.10;;;13.00;99.90;;;;;;5033876;28;20679;-79
2023/05/03 06:09:07;;;;;;;2.27;2.10;;;13.10;99.90;;;;;;5032052;28;20176;-80
2023/05/03 06:11:37;;;;;;;2.43;2.30;;;13.20;99.90;;;;;;5033892;28;20169;-79
2023/05/03 06:14:03;;;;;;;2.30;2.20;;;13.20;99.90;;;;;;5033798;28;20668;-78
2023/05/03 06:16:32;;;;;;;3.17;2.40;;;13.20;99.90;;;;;;5034002;28;20634;-78
2023/05/03 06:18:58;;;;;;;2.33;2.23;;;13.30;99.90;;;;;;5033354;28;20180;-78
2023/05/03 06:21:28;;;;;;;2.27;2.17;;;13.30;99.90;;;;;;5037923;28;20190;-78
2023/05/03 06:23:54;;;;;;;2.33;2.23;;;13.50;99.90;;;;;;5041557;28;20608;-79
2023/05/03 06:26:22;;;;;;;2.53;2.43;;;13.50;99.90;;;;;;5037690;28;20223;-79
2023/05/03 06:28:49;;;;;;;2.70;2.50;;;13.60;99.90;;;;;;5035643;28;20172;-79
2023/05/03 06:31:15;;;;;;;2.33;2.23;;;13.60;99.90;;;;;;5034279;28;20177;-78
2023/05/03 06:33:41;;;;;;;2.43;2.33;;;13.70;99.90;;;;;;5032593;28;20180;-78
2023/05/03 06:36:07;;;;;;;2.77;2.57;;;13.70;99.90;;;;;;5033950;28;20168;-80
2023/05/03 06:38:33;;;;;;;2.47;2.30;;;13.70;99.90;;;;;;5033413;28;20175;-77
2023/05/03 06:40:58;;;;;;;2.50;2.40;;;13.70;99.90;;;;;;5035994;28;20239;-80
2023/05/03 06:43:25;;;;;;;2.57;2.47;;;13.80;99.90;;;;;;5033905;28;20258;-79
2023/05/03 06:45:52;;;;;;;2.40;2.23;;;13.80;99.90;;;;;;5033809;28;20207;-78
2023/05/03 06:48:18;;;;;;;2.33;2.23;;;13.90;99.90;;;;;;5032476;28;20543;-77
2023/05/03 06:50:44;;;;;;;2.70;2.50;;;14.00;99.90;;;;;;5032308;28;20180;-78
2023/05/03 06:53:09;;;;;;;2.83;2.73;;;13.90;99.90;;;;;;5034577;28;20179;-77
2023/05/03 06:55:35;;;;;;;2.50;2.30;;;14.00;99.90;;;;;;5034098;28;20179;-78
2023/05/03 06:58:01;;;;;;;2.43;2.23;;;14.10;99.90;;;;;;5033847;28;20643;-79
2023/05/03 07:00:27;;;;;;;2.60;2.50;;;14.20;99.90;;;;;;5035214;28;20378;-78
2023/05/03 07:02:55;;;;;;;3.13;2.90;;;14.30;99.90;;;;;;5035922;28;20171;-78
2023/05/03 07:05:21;;;;;;;4.20;2.60;;;14.40;99.90;;;;;;5033608;28;20226;-78
2023/05/03 07:07:47;;;;;;;2.83;2.63;;;14.60;99.90;;;;;;5035329;28;20551;-77
2023/05/03 07:10:12;;;;;;;2.80;2.70;;;14.60;99.90;;;;;;5035754;28;20174;-78
2023/05/03 07:12:41;;;;;;;2.63;2.43;;;14.60;99.90;;;;;;5038167;28;20237;-77
2023/05/03 07:15:08;;;;;;;2.70;2.60;;;14.60;99.90;;;;;;5049378;28;20202;-78
2023/05/03 07:17:34;;;;;;;2.70;2.50;;;14.50;99.90;;;;;;5041601;28;20176;-78
2023/05/03 07:20:00;;;;;;;2.70;2.60;;;14.50;99.90;;;;;;5036304;28;20183;-77
2023/05/03 07:22:26;;;;;;;2.90;2.70;;;14.50;99.90;;;;;;5034589;28;20233;-77
2023/05/03 07:24:58;;;;;;;2.80;2.60;;;14.60;99.90;;;;;;5034252;28;20643;-78
2023/05/03 07:27:25;;;;;;;2.87;2.70;;;14.70;99.90;;;;;;5034379;28;20219;-77
2023/05/03 07:29:51;;;;;;;3.00;2.80;;;14.90;99.90;;;;;;5033836;28;20172;-77
2023/05/03 07:32:17;;;;;;;2.67;2.57;;;14.90;99.90;;;;;;5034133;28;20240;-77
2023/05/03 07:34:42;;;;;;;2.80;2.70;;;14.90;99.90;;;;;;5036583;28;20181;-79
2023/05/03 07:37:08;;;;;;;3.13;2.97;;;15.00;99.90;;;;;;5039147;28;20252;-79
2023/05/03 07:39:35;;;;;;;3.37;3.17;;;15.10;99.90;;;;;;5034174;28;20180;-77
2023/05/03 07:42:01;;;;;;;3.10;3.00;;;15.20;99.90;;;;;;5033827;28;20177;-77
2023/05/03 07:44:26;;;;;;;2.90;2.80;;;15.30;99.90;;;;;;5033182;28;20231;-79
2023/05/03 07:46:52;;;;;;;3.53;3.23;;;15.30;99.90;;;;;;5031732;28;20237;-79
2023/05/03 07:49:18;;;;;;;4.80;3.03;;;15.40;99.90;;;;;;5031937;28;20534;-79
2023/05/03 07:51:44;;;;;;;3.23;2.77;;;15.30;99.90;;;;;;5032994;28;20536;-77
2023/05/03 07:54:09;;;;;;;2.80;2.70;;;15.40;99.90;;;;;;5032811;28;20537;-78
2023/05/03 07:56:35;;;;;;;2.90;2.80;;;15.40;99.90;;;;;;5033122;28;20176;-80
2023/05/03 07:59:01;;;;;;;2.80;2.60;;;15.50;99.90;;;;;;5033260;28;20172;-76
2023/05/03 08:01:27;;;;;;;3.50;3.20;;;15.40;99.90;;;;;;5031735;28;20180;-78
2023/05/03 08:03:53;;;;;;;3.47;3.23;;;15.60;99.90;;;;;;5032342;28;20229;-78
2023/05/03 08:06:19;;;;;;;3.00;2.80;;;15.90;99.90;;;;;;5032807;28;20349;-78
2023/05/03 08:08:45;;;;;;;3.33;3.03;;;15.90;99.90;;;;;;5036164;28;20555;-77
2023/05/03 08:11:11;;;;;;;3.60;3.30;;;16.10;99.90;;;;;;5036169;28;20172;-77
2023/05/03 08:13:37;;;;;;;3.37;2.83;;;16.00;99.90;;;;;;5036183;28;20259;-80
2023/05/03 08:16:04;;;;;;;3.70;3.40;;;16.00;99.90;;;;;;5036362;28;20221;-77
2023/05/03 08:18:30;;;;;;;3.33;3.03;;;16.10;99.90;;;;;;5034910;28;20184;-78
2023/05/03 08:20:57;;;;;;;3.87;3.53;;;16.10;99.90;;;;;;5036784;28;20184;-79
2023/05/03 08:23:23;;;;;;;3.60;3.30;;;16.10;99.90;;;;;;5038620;28;20176;-78
2023/05/03 08:25:49;;;;;;;3.30;3.10;;;16.10;99.90;;;;;;5036088;28;20186;-77
2023/05/03 08:28:15;;;;;;;3.20;3.00;;;16.00;99.90;;;;;;5035841;28;20181;-77
2023/05/03 08:30:41;;;;;;;3.30;3.10;;;16.00;99.90;;;;;;5035642;28;20252;-78
2023/05/03 08:33:10;;;;;;;3.40;3.10;;;16.10;99.90;;;;;;5035779;28;20266;-78
2023/05/03 08:35:36;;;;;;;3.87;3.10;;;16.00;99.70;;;;;;5036184;28;20617;-77
2023/05/03 08:38:03;;;;;;;3.03;2.93;;;15.90;99.90;;;;;;5037047;28;20232;-77
2023/05/03 08:40:32;;;;;;;5.83;3.40;;;15.90;99.90;;;;;;5041223;28;20207;-79
2023/05/03 08:43:05;;;;;;;3.60;3.30;;;15.90;99.90;;;;;;5039082;28;20200;-77
2023/05/03 08:45:32;;;;;;;3.00;2.80;;;15.70;99.90;;;;;;5035477;28;20470;-79
2023/05/03 08:47:58;;;;;;;2.70;2.60;;;15.80;99.90;;;;;;5034866;28;20270;-77
2023/05/03 08:50:24;;;;;;;3.20;2.87;;;16.00;99.90;;;;;;5033760;28;20940;-77
2023/05/03 08:52:50;;;;;;;2.90;2.70;;;16.10;99.90;;;;;;5035485;28;20620;-77
2023/05/03 08:55:16;;;;;;;3.00;2.80;;;16.10;99.90;;;;;;5038538;28;20176;-80
2023/05/03 08:57:42;;;;;;;3.23;3.03;;;16.10;99.60;;;;;;5037444;28;20177;-77
2023/05/03 09:00:11;;;;;;;3.27;2.97;;;16.20;98.30;;;;;;5043182;28;20177;-78
2023/05/03 09:02:38;;;;;;;2.80;2.70;;;16.30;99.40;;;;;;5049219;28;20260;-77
2023/05/03 09:05:14;;;;;;;2.97;2.80;;;16.30;99.40;;;;;;5038232;28;20224;-77
2023/05/03 09:07:41;;;;;;;2.73;2.63;;;16.40;99.70;;;;;;5033953;28;20306;-78
2023/05/03 09:10:22;;;;;;;3.03;2.83;;;16.40;99.70;;;;;;5035646;28;20607;-79
2023/05/03 09:12:48;;;;;;;2.83;2.70;;;16.30;99.10;;;;;;5035247;28;20226;-78
2023/05/03 09:15:21;;;;;;;3.10;2.90;;;16.20;99.30;;;;;;5034985;28;20177;-79
2023/05/03 09:18:10;;;;;;;2.93;2.60;;;16.20;99.40;;;;;;5034044;28;20720;-77
2023/05/03 09:20:37;;;;;;;3.50;3.20;;;16.30;99.60;;;;;;5035351;28;20161;-78
2023/05/03 09:23:03;;;;;;;3.20;3.00;;;16.50;98.50;;;;;;5035271;28;20176;-80
2023/05/03 09:25:41;;;;;;;2.80;2.60;;;16.60;98.60;;;;;;5035608;28;20169;-78
2023/05/03 09:28:07;;;;;;;3.07;2.93;;;16.50;97.70;;;;;;5042640;28;20184;-79
2023/05/03 09:30:37;;;;;;;2.80;2.70;;;16.60;98.40;;;;;;5042684;28;20169;-78
2023/05/03 09:33:03;;;;;;;2.77;2.67;;;16.70;98.70;;;;;;5038187;28;20680;-79
2023/05/03 09:35:31;;;;;;;5.30;2.83;;;16.80;98.90;;;;;;5034649;28;20291;-78
2023/05/03 09:37:57;;;;;;;3.40;2.90;;;16.80;98.60;;;;;;5035010;28;20165;-79
2023/05/03 09:40:24;;;;;;;3.57;3.27;;;16.80;98.30;;;;;;5033584;28;20181;-78
2023/05/03 09:43:10;;;;;;;3.40;2.90;;;16.90;97.70;;;;;;5039224;28;20180;-78
2023/05/03 09:45:37;;;;;;;2.80;2.70;;;16.80;98.20;;;;;;5035220;28;20174;-77
2023/05/03 09:48:04;;;;;;;2.73;2.63;;;16.90;98.40;;;;;;5033928;28;20211;-79
2023/05/03 09:50:35;;;;;;;2.80;2.70;;;17.10;98.20;;;;;;5034330;28;20168;-77
2023/05/03 09:53:06;;;;;;;3.27;3.07;;;17.10;97.10;;;;;;5034584;28;20176;-79
2023/05/03 09:55:37;;;;;;;3.37;3.17;;;17.30;95.90;;;;;;5034599;28;20181;-79
2023/05/03 09:58:06;;;;;;;3.20;3.00;;;17.40;94.90;;;;;;5035064;28;20540;-77
2023/05/03 10:00:39;;;;;;;3.20;3.00;;;17.60;95.40;;;;;;5034934;28;20184;-79
2023/05/03 10:03:09;;;;;;;3.23;3.03;;;17.80;94.80;;;;;;5035665;28;20180;-76
2023/05/03 10:05:54;;;;;;;3.03;2.83;;;17.80;94.70;;;;;;5042824;28;20231;-78
2023/05/03 10:08:39;;;;;;;3.20;3.00;;;17.90;94.30;;;;;;5042064;28;20176;-78
2023/05/03 10:11:08;;;;;;;3.77;3.43;;;17.80;94.20;;;;;;5033125;28;20644;-77
2023/05/03 10:13:34;;;;;;;3.20;3.10;;;17.60;95.50;;;;;;5033942;28;20203;-77
2023/05/03 10:16:11;;;;;;;2.77;2.67;;;17.50;94.70;;;;;;5032321;28;20263;-79
2023/05/03 10:18:46;;;;;;;3.30;3.03;;;17.40;94.10;;;;;;5032016;28;20610;-77
2023/05/03 10:21:20;;;;;;;2.77;2.67;;;17.40;94.20;;;;;;5033650;28;20249;-79
2023/05/03 10:24:08;;;;;;;2.93;2.73;;;17.30;93.90;;;;;;5033479;28;20157;-79
2023/05/03 10:26:34;;;;;;;3.17;3.07;;;17.10;93.70;;;;;;5033532;28;20207;-78
2023/05/03 10:29:00;;;;;;;3.03;2.90;;;17.30;94.00;;;;;;5032942;28;20222;-78
2023/05/03 10:31:47;;;;;;;3.10;2.80;;;17.60;94.10;;;;;;5032266;28;20176;-78
2023/05/03 10:34:31;;;;;;;2.90;2.70;;;17.80;93.50;;;;;;5033549;28;20715;-78
2023/05/03 10:37:01;;;;;;;3.30;3.10;;;17.70;93.20;;;;;;5031961;28;20219;-80
2023/05/03 10:39:28;;;;;;;2.87;2.77;;;17.30;94.90;;;;;;5033506;28;20169;-79
2023/05/03 10:42:12;;;;;;;3.20;3.00;;;17.20;95.80;;;;;;5033969;28;20199;-77
2023/05/03 10:44:40;;;;;;;3.00;2.80;;;17.00;96.20;;;;;;5033526;28;20168;-79
2023/05/03 10:47:23;;;;;;;3.70;3.40;;;17.20;96.70;;;;;;5033108;28;20222;-77
2023/05/03 10:50:10;;;;;;;3.33;3.13;;;17.00;96.20;;;;;;5033733;28;20171;-77
2023/05/03 10:52:38;;;;;;;3.10;2.90;;;17.00;96.30;;;;;;5033605;28;20532;-79
2023/05/03 10:55:19;;;;;;;2.90;2.70;;;17.00;96.00;;;;;;5034730;28;20266;-79
2023/05/03 10:57:47;;;;;;;3.10;2.90;;;17.10;96.10;;;;;;5033491;28;20156;-78
2023/05/03 11:00:40;;;;;;;2.60;2.50;;;17.30;96.10;;;;;;5033466;28;20300;-77
2023/05/03 11:03:30;;;;;;;3.20;3.00;;;17.40;96.40;;;;;;5034793;28;20266;-78
2023/05/03 11:05:56;;;;;;;3.13;2.97;;;17.60;95.60;;;;;;5033438;28;20192;-79
2023/05/03 11:08:24;;;;;;;3.00;2.80;;;17.50;95.10;;;;;;5032605;28;20208;-79
2023/05/03 11:10:58;;;;;;;3.07;2.93;;;17.60;95.40;;;;;;5033336;28;20534;-77
2023/05/03 11:13:25;;;;;;;2.97;2.77;;;17.60;94.80;;;;;;5033367;28;20196;-78
2023/05/03 11:15:54;;;;;;;3.13;2.93;;;17.50;93.40;;;;;;5033932;28;20176;-77
2023/05/03 11:18:20;;;;;;;2.70;2.60;;;17.30;93.40;;;;;;5031310;28;20189;-78
2023/05/03 11:20:45;;;;;;;3.10;2.90;;;17.30;93.70;;;;;;5034115;28;20229;-78
2023/05/03 11:23:11;;;;;;;3.10;2.90;;;17.10;93.50;;;;;;5038654;28;20172;-77
2023/05/03 11:25:38;;;;;;;3.93;3.63;;;17.30;93.60;;;;;;5039657;28;20757;-77
2023/05/03 11:28:04;;;;;;;3.80;3.50;;;17.40;95.10;;;;;;5033094;28;20207;-80
2023/05/03 11:30:33;;;;;;;4.00;3.43;;;17.40;95.30;;;;;;5034245;28;20176;-77
2023/05/03 11:33:00;;;;;;;3.33;3.13;;;17.50;95.40;;;;;;5037611;28;20194;-77
2023/05/03 11:35:28;;;;;;;3.77;3.57;;;17.60;95.70;;;;;;5034449;28;20266;-77
2023/05/03 11:37:54;;;;;;;3.97;3.67;;;17.60;96.00;;;;;;5036782;28;20183;-79
2023/05/03 11:40:20;;;;;;;4.33;3.83;;;17.60;96.90;;;;;;5048318;28;20186;-78
2023/05/03 11:42:52;;;;;;;4.17;3.87;;;17.70;96.20;;;;;;5035966;28;20186;-79
2023/05/03 11:45:22;;;;;;;5.67;4.30;;;17.70;96.30;;;;;;5032788;28;20172;-78
2023/05/03 11:47:48;;;;;;;4.83;4.50;;;17.80;96.40;;;;;;5032478;28;20211;-79
2023/05/03 11:50:17;;;;;;;4.53;4.23;;;17.90;96.60;;;;;;5032286;28;20542;-76
2023/05/03 11:52:44;;;;;;;4.40;4.10;;;18.10;96.70;;;;;;5031235;28;20247;-77
2023/05/03 11:55:10;;;;;;;4.70;4.40;;;18.30;96.80;;;;;;5032638;28;20164;-78
2023/05/03 11:57:37;;;;;;;4.57;4.27;;;18.30;96.80;;;;;;5032167;28;20865;-78
2023/05/03 12:00:15;;;;;;;5.23;4.83;;;18.30;96.20;;;;;;5031012;28;20271;-77
2023/05/03 12:02:47;;;;;;;4.80;4.50;;;18.20;96.40;;;;;;5047569;28;20263;-78
2023/05/03 12:05:13;;;;;;;4.90;4.50;;;18.20;96.40;;;;;;5032244;28;20350;-79
2023/05/03 12:07:39;;;;;;;6.83;4.73;;;17.90;96.40;;;;;;5030396;28;20216;-77
2023/05/03 12:10:15;;;;;;;4.83;4.37;;;17.80;97.10;;;;;;5032313;28;20179;-77
2023/05/03 12:12:51;;;;;;;4.70;4.40;;;17.70;97.90;;;;;;5032477;28;20176;-78
2023/05/03 12:15:36;;;;;;;4.40;4.03;;;17.50;98.70;;;;;;5032663;28;20254;-79
2023/05/03 12:18:06;;;;;;;5.60;5.20;;;17.40;99.30;;;;;;5032436;28;20171;-78
2023/05/03 12:20:32;;;;;;;5.33;4.90;;;17.30;99.90;;;;;;5032287;28;20259;-78
2023/05/03 12:23:03;;;;;;;5.83;5.27;;;17.30;99.90;;;;;;5035214;28;20220;-78
2023/05/03 12:25:30;;;;;;;5.03;4.70;;;17.30;99.90;;;;;;5033709;28;20181;-79
2023/05/03 12:28:04;;;;;;;5.83;5.33;;;17.20;99.90;;;;;;5031460;28;20211;-78
2023/05/03 12:30:30;;;;;;;5.30;4.80;;;17.00;99.90;;;;;;5031494;28;20255;-77
2023/05/03 12:32:56;;;;;;;6.70;5.67;;;17.00;99.90;;;;;;5032213;28;20196;-77
2023/05/03 12:35:24;;;;;;;5.57;5.17;;;16.80;99.90;;;;;;5032864;28;20172;-76
2023/05/03 12:37:50;;;;;;;5.23;4.83;;;16.60;99.90;;;;;;5032515;28;20180;-79
2023/05/03 12:40:18;;;;;;;6.13;5.60;;;16.60;99.90;;;;;;5033134;28;20176;-79
2023/05/03 12:42:44;;;;;;;5.40;5.00;;;16.50;99.90;;;;;;5033953;28;20169;-78
2023/05/03 12:45:12;;;;;;;6.60;5.57;;;16.40;99.90;;;;;;5033072;28;20179;-78
2023/05/03 12:47:38;;;;;;;6.07;5.57;;;16.40;99.90;;;;;;5034050;28;20212;-79
2023/05/03 12:50:04;;;;;;;8.37;5.57;;;16.40;99.90;;;;;;5037758;28;20183;-78
2023/05/03 12:52:33;;;;;;;6.00;5.50;;;16.30;99.90;;;;;;5034040;28;20196;-79